Friday, October 31, 2014
22:10 UTC
  |  Log In   |  Register Free
Airport Search:

Teterboro Airport
(KTEB)

Airport information sponsored by:
Landmark Aviation - TEB at Teterboro (KTEB), Teterboro, NJ
FAA data valid effective September 18, 2014 - November 13, 2014 (unless otherwise noted).

 
 
 
 
 
 
 
 
 
 
 
 
 
 

Current Aviation Weather for Teterboro Airport (KTEB)

The most recent METAR observation for KTEB was updated at: 2120
METAR Summary (Translated METAR)
KTEB
312051Z 05006KT 10SM OVC050 13/02 A2989 RMK AO2 SLP122 T01280017 55011
KLGA
312051Z 06012KT 10SM FEW025 OVC050 12/04 A2990 RMK AO2 SLP125 T01220044 55009
(9.6 nm SE from KTEB)
KCDW
312153Z AUTO 04003KT 10SM OVC055 11/02 A2991 RMK AO2 SLP133 T01110017 TSNO
(10.1 nm NW from KTEB)
TAF Summary (Translated TAF)
KTEB
312038Z 3121/0118 04005KT P6SM FEW030 BKN045 OVC060 TEMPO 0101/0103 -RA FM010300 02008KT P6SM -RA OVC025 FM010700 02012G20KT 5SM -RA BR OVC015 FM011500 02015G25KT 4SM RA BR OVC012
KLGA
(9.6 nm SE from KTEB)
312038Z 3121/0118 06012KT P6SM FEW025 SCT035 OVC045 TEMPO 0100/0102 -RA BKN035 FM010200 05014KT P6SM -RA OVC025 FM010700 03015G22KT 5SM -RA BR OVC015 FM011500 03020G30KT 3SM RA BR OVC010
  Airport Weather Conditions for KTEB

 Current Weather at TEB
55° F
Overcast
Northeast winds at 6.9 mph
TEB NOAA Radar

Pressure: 29.89 in
Humidity: 47%
Wind: Northeast at 6.9 MPH (6 KT)
Dew Point: 35.1°F
Visibility: 10.00 mi


Airport Weather Forecast for KTEB

Translated METAR and TAF for KTEB
Translated METAR for KTEB (2205 UTC 31 October 2014)
found at http://aviationweather.gov/adds/metars/
 
METAR text: KTEB 312151Z 06005KT 10SM OVC055 12/02 A2989 RMK AO2 SLP122 T01220022
Conditions at: KTEB (TETERBORO , NJ, US) observed 2151 UTC 31 October 2014
Temperature: 12.2°C (54°F)
Dewpoint: 2.2°C (36°F) [RH = 50%]
Pressure (altimeter): 29.89 inches Hg (1012.3 mb)
[Sea-level pressure: 1012.2 mb]
Winds: from the ENE (60 degrees) at 6 MPH (5 knots; 2.6 m/s)
Visibility: 10 or more miles (16+ km)
Ceiling: 5500 feet AGL
Clouds: overcast cloud deck at 5500 feet AGL
Weather: no significant weather observed at this time
Translated TAF for KTEB
Forecast for: KTEB (TETERBORO , NJ, US)
TAF Text: KTEB 312038Z 3121/0118 04005KT P6SM FEW030 BKN045 OVC060
Forecast period: 2100 UTC 31 October 2014 to 0300 UTC 01 November 2014
Forecast type: FROM: standard forecast or significant change
Winds: from the NE (40 degrees) at 6 MPH (5 knots; 2.6 m/s)
Visibility: 6 or more miles (10+ km)
Ceiling: 4500 feet AGL
Clouds: few clouds at 3000 feet AGL
broken clouds at 4500 feet AGL
overcast cloud deck at 6000 feet AGL
Weather: no significant weather forecast for this period
TAF Text: TEMPO 0101/0103 -RA
Forecast period: 0100 to 0300 UTC 01 November 2014
Forecast type: TEMPORARY: The following changes expected for less than half the time period
Weather: -RA  (light rain)
TAF Text: FM010300 02008KT P6SM -RA OVC025
Forecast period: 0300 to 0700 UTC 01 November 2014
Forecast type: FROM: standard forecast or significant change
Winds: from the NNE (20 degrees) at 9 MPH (8 knots; 4.2 m/s)
Visibility: 6 or more miles (10+ km)
Ceiling: 2500 feet AGL
Clouds: overcast cloud deck at 2500 feet AGL
Weather: -RA  (light rain)
TAF Text: FM010700 02012G20KT 5SM -RA BR OVC015
Forecast period: 0700 to 1500 UTC 01 November 2014
Forecast type: FROM: standard forecast or significant change
Winds: from the NNE (20 degrees) at 14 MPH (12 knots; 6.2 m/s)
gusting to 23 MPH (20 knots; 10.4 m/s)
Visibility: 5 miles (8 km)
Ceiling: 1500 feet AGL
Clouds: overcast cloud deck at 1500 feet AGL
Weather: -RA BR  (light rain, mist)
TAF Text: FM011500 02015G25KT 4SM RA BR OVC012
Forecast period: 1500 to 1800 UTC 01 November 2014
Forecast type: FROM: standard forecast or significant change
Winds: from the NNE (20 degrees) at 17 MPH (15 knots; 7.8 m/s)
gusting to 29 MPH (25 knots; 13.0 m/s)
Visibility: 4 miles (6 km)
Ceiling: 1200 feet AGL
Clouds: overcast cloud deck at 1200 feet AGL
Weather: RA BR  (rain, mist)

Find All Airport Services Find A Hotel Find A Rental Car Find A Golf Course Find A Restaurant $100 Hamburger



FBO's on the Field
FBO Company Facility Photos Services Transportation Aviation Fuel Prices: Prices include tax
Catering Weather Repair Courtesy Rental Type 100LL JetA JetA+ MOGAS 8087
 
Landmark Aviation - TEB

Landmark Aviation - TEB logo
Currently rated 4.2 by 5 people
FS:
Last Updated: Oct-31
Login to update fuel prices
SS:
Contact Landmark Aviation - TEBMore FBO Information
 
Atlantic Aviation

Currently rated 4 by 1 person
FS:Texaco
Last Updated: Oct-31
Login to update fuel prices
SS:
Contact Atlantic AviationMore FBO Information
 
Jet Aviation

Currently rated 4.7 by 3 people
FS:Phillips 66
Last Updated: Oct-28
Login to update fuel prices
SS:
Contact Jet AviationMore FBO Information
 
Meridian Teterboro

Currently rated 4.4 by 4 people
FS:Shell
Last Updated: Oct-22
Login to update fuel prices
SS:
Contact Meridian TeterboroMore FBO Information
 
Signature Flight Support

Currently rated 3.4 by 1 person
FS:Independent
Last Updated: Oct-31
Login to update fuel prices
SS:
Contact Signature Flight SupportMore FBO Information
 
Add another FBO Facility Photos Catering Weather Repair Courtesy Rental Type 100LL JetA JetA+ MOGAS 8087
Services Transportation Aviation Fuel Prices: Prices include tax


model-print
model-print
model-print
model-print